»·PEaware :: SKY37 KPRC-KHII

SKY37 :: KPRC-KHII

FLIGHT INFORMATION

Flight Status: Arrived
Operator:
Sky High Charters
More flights by this operator :: More flights under this callsign
Pilot: John B. (35460)
Aircraft: EMBRAER PHENOM 300
(E55P)
More flights by this aircraft type
Origin: KPRC Love
United States
Destination: KHII Lake Havasu City
United States
More flights between these airports :: More routes between these airports
Route: WNSKI2 MUMTE V12 EED
File this flight plan on PilotEdge
Remarks:
Altitude:
(Current/Filed)
20,000ft
Speed:
(Current/Filed)
300kts
Departed: 12-Apr-23 03:56 PM
Arrived: 12-Apr-23 04:38 PM
Distance/Time
Traveled:
96nm/0:42
Distance/Time
To Go:
Arrived

Flight Plot

Page will automatically refresh every two minutes.

Flight plan parsing failed; only flown route is shown


Map Options




Map Legend


Flown Route
Filed Route
Departure Airport
Arrival Airport
Navaid (VOR, NDB)
Fix

Horizontal Profiles

Position Reports

Time Latitude Longitude Heading Altitude Ground
Speed
12-Apr-23 15:44 34.646828 -112.425230 131 5024ft 0kts
12-Apr-23 15:44 34.646828 -112.425230 131 5024ft 0kts
12-Apr-23 15:45 34.646828 -112.425230 131 5024ft 0kts
12-Apr-23 15:46 34.646828 -112.425230 131 5024ft 0kts
12-Apr-23 15:47 34.646828 -112.425230 131 5024ft 0kts
12-Apr-23 15:49 34.646828 -112.425230 131 5024ft 0kts
12-Apr-23 15:49 34.647404 -112.425077 13 5021ft 10kts
12-Apr-23 15:50 34.650411 -112.422043 41 5012ft 22kts
12-Apr-23 15:51 34.655954 -112.416177 42 4979ft 31kts
12-Apr-23 15:52 34.660405 -112.410765 40 4949ft 21kts
12-Apr-23 15:53 34.661556 -112.410503 312 4946ft 0kts
12-Apr-23 15:54 34.661975 -112.411366 255 4946ft 12kts
12-Apr-23 15:55 34.640950 -112.433890 218 5849ft 167kts
12-Apr-23 15:56 34.619097 -112.412388 58 8463ft 190kts
12-Apr-23 15:57 34.623746 -112.361452 145 10053ft 166kts
12-Apr-23 15:58 34.588082 -112.319767 144 11607ft 183kts
12-Apr-23 15:59 34.552185 -112.271765 138 13610ft 200kts
12-Apr-23 16:00 34.510858 -112.285990 226 15828ft 190kts
12-Apr-23 16:01 34.480587 -112.340419 239 18019ft 202kts
12-Apr-23 16:02 34.460467 -112.404253 250 20306ft 206kts
12-Apr-23 16:03 34.452455 -112.480698 264 20571ft 255kts
12-Apr-23 16:04 34.464132 -112.572207 282 20564ft 297kts
12-Apr-23 16:05 34.503888 -112.665038 301 20565ft 330kts
12-Apr-23 16:06 34.575068 -112.741987 323 20569ft 358kts
12-Apr-23 16:07 34.670810 -112.785887 326 20547ft 369kts
12-Apr-23 16:08 34.720655 -112.881621 257 20584ft 334kts
12-Apr-23 16:09 34.722159 -112.996044 268 20557ft 343kts
12-Apr-23 16:10 34.726274 -113.112368 268 20558ft 346kts
12-Apr-23 16:11 34.730278 -113.229638 268 20540ft 348kts
12-Apr-23 16:12 34.734156 -113.347119 268 20537ft 348kts
12-Apr-23 16:13 34.737984 -113.464782 267 20512ft 348kts
12-Apr-23 16:14 34.741678 -113.582006 267 20517ft 348kts
12-Apr-23 16:15 34.745228 -113.699164 267 20508ft 347kts
12-Apr-23 16:16 34.748720 -113.816497 267 20502ft 347kts
12-Apr-23 16:17 34.752074 -113.935113 267 19537ft 356kts
12-Apr-23 16:18 34.755329 -114.053220 267 17645ft 342kts
12-Apr-23 16:19 34.770024 -114.161588 263 15730ft 309kts
12-Apr-23 16:20 34.764114 -114.247533 264 13603ft 234kts
12-Apr-23 16:21 34.764734 -114.325663 265 10642ft 233kts
12-Apr-23 16:22 34.765438 -114.403871 265 7654ft 231kts
12-Apr-23 16:23 34.766419 -114.478494 276 6652ft 213kts
12-Apr-23 16:24 34.816873 -114.501614 354 5777ft 196kts
12-Apr-23 16:25 34.866817 -114.504174 355 5501ft 179kts
12-Apr-23 16:26 34.887506 -114.467353 149 5480ft 164kts
12-Apr-23 16:27 34.847079 -114.474466 196 5478ft 145kts
12-Apr-23 16:28 34.808509 -114.484399 179 5480ft 138kts
12-Apr-23 16:29 34.769735 -114.475162 169 5497ft 145kts
12-Apr-23 16:30 34.728373 -114.470099 179 4516ft 144kts
12-Apr-23 16:31 34.691707 -114.452944 151 3326ft 150kts
12-Apr-23 16:32 34.663839 -114.430910 152 2833ft 92kts
12-Apr-23 16:33 34.639293 -114.411472 152 2345ft 111kts
12-Apr-23 16:34 34.612583 -114.390274 151 1637ft 118kts
12-Apr-23 16:35 34.587229 -114.369892 155 957ft 100kts
12-Apr-23 16:36 34.571584 -114.358682 149 756ft 41kts
12-Apr-23 16:37 34.570817 -114.360196 263 743ft 5kts
12-Apr-23 16:38 34.571050 -114.360544 8 742ft 0kts

Navigation Log

Ident Type
Flight plan parsing failed, navigation log unavailable